Terminal Aerodrome Forecast
Issued by NWS Grand Forks, ND

Home | Current Version | Previous Version | Graphics & Text | Print | Product List | Glossary On
Versions: 1 2 3 4 5 6 7 8 9 10 11 12 13 14 15 16 17 18 19 20 21
036
FTUS43 KFGF 160520
TAFGFK
TAF
KGFK 160520Z 1606/1706 12005KT P6SM VCSH OVC080
     FM160800 11005KT P6SM SHRA OVC050
     FM161200 10005KT P6SM SHRA OVC035
     FM161400 10005KT P6SM SHRA OVC015
     FM161500 09005KT P6SM OVC010
     FM162100 36009KT P6SM BKN030
     FM162200 36009KT P6SM BKN035
     FM170400 01004KT P6SM SCT150=

USA.gov is the U.S. government's official web portal to all federal, state and local government web resources and services.